Pagina principale
METAR-TAF:

METAR-TAF

Aeroporti :

Gibuti, Gibuti

latitudine: 11-33N, longitudine: 043-10E, altezza: 49 m

Osservazione

Il bollettino è stato emesso 8 ore e 23 minuti fa, alle 15:00 UTC
Vento 3 kt da est
Temperature 28°C
Umidità 79%
Pressione 1012 hPa
Visibilità: 8000 m
Poco nuvoloso ad un'altezza di 2300 ft
foschia

METAR: HDAM 281500Z 09003KT 8000 HZ FEW023 28/24 Q1012

Ora: 02:23 (23:23 UTC)

Previsione

Il bollettino è stato emesso 6 ore e 23 minuti fa, alle 17:00 UTC
Previsione valida dal 28 alle 18 UTC al 29 alle 18 UTC
Vento 5 kt da direzioni variabili
Poco nuvoloso ad un'altezza di 2000 ft
Evoluzione graduale
dal 29 alle 00 UTC al 29 alle 06 UTC
Vento kt da nord
Nubi sparse ad un'altezza di 2000 ft
Evoluzione graduale
dal 29 alle 06 UTC al 29 alle 12 UTC
Vento 10 kt da est
Poco nuvoloso ad un'altezza di 2000 ft

TAF: HDAM 281700Z 2818/2918 VRB05KT 99999 FEW020 BECMG 2900/2906 00000KT SCT020 BECMG 2906/2912 08010KT FEW020

Osservazioni e previsioni meteorologiche di più di 4000 aeroporti (messaggi METAR e TAF).

Le stazioni disponibili sono rappresentate dai dischi gialli e rossi sulla carta.

Puntare il mouse per vedere il nome della stazione.

Clicca sopra per visualizzare le osservazioni e previsioni meteorologiche.

Per cambiare la mappa : fare clic sui pulsanti verdi con una croce nera per ingrandire, il pulsante verde con un trattino per diminuire, o sulla freccia verde per le mappe adiacenti.


METAR-TAF: